Terminal Aerodrome Forecast
Issued by NWS

Current Version | Previous Version | Text Only | Print | Product List | Glossary On
Versions: 1 2 3 4 5 6 7 8 9 10 11 12 13 14 15 16 17 18 19 20 21 22 23 24 25 26 27 28 29 30 31 32 33 34 35 36 37 38 39 40 41 42 43 44 45 46 47 48
000
FTUS45 KGJT 211130
TAFVEL
TAF
KVEL 211130Z 2112/2212 10004KT 5SM BR SCT019 OVC035
      TEMPO 2113/2115 P6SM NSW SCT020 OVC040
     FM211500 VRB03KT P6SM SCT020 OVC040
     FM220000 28007KT P6SM OVC025
     FM220400 32007G15KT 2SM -SN BR OVC007
     FM220800 35008KT 3SM -SN BR BKN006 OVC012=

USA.gov is the U.S. government's official web portal to all federal, state and local government web resources and services.